Port Stanley — V7EE9 — position and weather

sailwx.info

Track history (hours):
 
Tides and Currents Weather Stations Pressure Air Temp Water Temp Dewpoint Dewpoint Depression Visibility Wind Speed Wind Dir Waves Ship Positions

Port Stanley

Last reported at 2016-Jul-22 23:32 UTC. Time now 2016-Jul-27 23:00 UTC.
Position N 29°53' E 123°35'.

Length 183 m; draft 8.4 m.

MMSI: 538090299.

Date/timePositionNaut miles runAvg speedWind from/ knotsBaromVisibWave heightAir tempDewpointWater temp
2016-Jul-22 23:32N 29°53' E 123°35'1612.9
2016-Jul-22 22:20N 30°09' E 123°35'  
2016-Jul-15 12:33N 22°46' E 119°55'1212.0
2016-Jul-15 11:33N 22°37' E 120°03'10 9.9
2016-Jul-15 10:33N 22°34' E 120°13'0 0.4
2016-Jul-15 09:30N 22°34' E 120°14'0 0.0
2016-Jul-15 08:31N 22°34' E 120°14'0 0.0
2016-Jul-15 07:31N 22°34' E 120°14'0 0.0
2016-Jul-15 06:31N 22°34' E 120°14'0 0.0
2016-Jul-15 05:25N 22°34' E 120°14'0 0.1
2016-Jul-15 04:30N 22°34' E 120°14'0 0.1
2016-Jul-15 03:31N 22°34' E 120°14'0 0.0
2016-Jul-15 02:08N 22°34' E 120°14'0 0.0
2016-Jul-15 01:32N 22°34' E 120°14'0 0.1
2016-Jul-15 00:19N 22°34' E 120°14'0 0.0
2016-Jul-14 23:32N 22°34' E 120°14'0 0.1
2016-Jul-14 22:26N 22°34' E 120°14'0 0.1
2016-Jul-14 21:32N 22°34' E 120°14'0 0.0
2016-Jul-14 20:32N 22°33' E 120°14'0 0.1
2016-Jul-14 19:32N 22°33' E 120°14'0 0.0
2016-Jul-14 18:32N 22°34' E 120°14'0 0.0
2016-Jul-14 17:26N 22°34' E 120°14'0 0.1
2016-Jul-14 16:20N 22°34' E 120°14'1 0.7
2016-Jul-14 15:33N 22°34' E 120°13'5 4.7
2016-Jul-14 14:33N 22°30' E 120°10'9 9.4
2016-Jul-14 13:33N 22°21' E 120°09'  
Track history (hours):
 
Tides and Currents Weather Stations Pressure Air Temp Water Temp Dewpoint Dewpoint Depression Visibility Wind Speed Wind Dir Waves Ship Positions

Port Stanley

Last reported at 2016-Jul-22 23:32 UTC. Time now 2016-Jul-27 23:00 UTC.
Position N 29°53' E 123°35'.

Length 183 m; draft 8.4 m.

MMSI: 538090299.

Date/timePositionNaut miles runAvg speedWind from/ knotsBaromVisibWave heightAir tempDewpointWater temp
2016-Jul-22 23:32N 29°53' E 123°35'1612.9
2016-Jul-22 22:20N 30°09' E 123°35'  
2016-Jul-15 12:33N 22°46' E 119°55'1212.0
2016-Jul-15 11:33N 22°37' E 120°03'10 9.9
2016-Jul-15 10:33N 22°34' E 120°13'0 0.4
2016-Jul-15 09:30N 22°34' E 120°14'0 0.0
2016-Jul-15 08:31N 22°34' E 120°14'0 0.0
2016-Jul-15 07:31N 22°34' E 120°14'0 0.0
2016-Jul-15 06:31N 22°34' E 120°14'0 0.0
2016-Jul-15 05:25N 22°34' E 120°14'0 0.1
2016-Jul-15 04:30N 22°34' E 120°14'0 0.1
2016-Jul-15 03:31N 22°34' E 120°14'0 0.0
2016-Jul-15 02:08N 22°34' E 120°14'0 0.0
2016-Jul-15 01:32N 22°34' E 120°14'0 0.1
2016-Jul-15 00:19N 22°34' E 120°14'0 0.0
2016-Jul-14 23:32N 22°34' E 120°14'0 0.1
2016-Jul-14 22:26N 22°34' E 120°14'0 0.1
2016-Jul-14 21:32N 22°34' E 120°14'0 0.0
2016-Jul-14 20:32N 22°33' E 120°14'0 0.1
2016-Jul-14 19:32N 22°33' E 120°14'0 0.0
2016-Jul-14 18:32N 22°34' E 120°14'0 0.0
2016-Jul-14 17:26N 22°34' E 120°14'0 0.1
2016-Jul-14 16:20N 22°34' E 120°14'1 0.7
2016-Jul-14 15:33N 22°34' E 120°13'5 4.7
2016-Jul-14 14:33N 22°30' E 120°10'9 9.4
2016-Jul-14 13:33N 22°21' E 120°09'  

Dump ship's entire track history